Time;durP1;ratioP1;P1;durP2;ratioP2;P2;SDS_P1;SDS_P2;PMS_P1;PMS_P2;Temp;Humidity;BMP_temperature;BMP_pressure;BME280_temperature;BME280_humidity;BME280_pressure;Samples;Min_cycle;Max_cycle;Signal;HPM_P1;HPM_P2
2021/01/19 00:01:01;;;;;;;2.83;1.57;;;-5.80;76.10;;;;;;4966585;28;20187;-79
2021/01/19 00:03:26;;;;;;;1.43;1.43;;;-5.80;76.20;;;;;;4971823;28;20190;-77
2021/01/19 00:05:52;;;;;;;3.23;1.50;;;-5.70;76.20;;;;;;4970215;28;20181;-77
2021/01/19 00:08:18;;;;;;;0.70;0.70;;;-5.70;76.40;;;;;;4969558;28;20190;-77
2021/01/19 00:10:43;;;;;;;2.30;1.20;;;-5.70;76.20;;;;;;4984473;28;20185;-77
2021/01/19 00:13:09;;;;;;;0.70;0.70;;;-5.70;76.10;;;;;;4974928;28;20817;-77
2021/01/19 00:15:35;;;;;;;2.47;2.37;;;-5.70;76.00;;;;;;4970160;28;20593;-77
2021/01/19 00:18:00;;;;;;;2.17;1.53;;;-5.70;75.90;;;;;;4985220;28;20193;-78
2021/01/19 00:20:26;;;;;;;1.83;1.67;;;-5.70;76.00;;;;;;4953126;28;20193;-77
2021/01/19 00:22:52;;;;;;;1.27;1.17;;;-5.70;75.90;;;;;;4952361;28;20182;-77
2021/01/19 00:25:17;;;;;;;1.70;1.40;;;-5.80;75.90;;;;;;4968403;28;20189;-77
2021/01/19 00:27:43;;;;;;;0.87;0.87;;;-5.80;76.00;;;;;;4978869;28;20199;-77
2021/01/19 00:30:09;;;;;;;1.10;1.10;;;-5.80;76.00;;;;;;4970014;28;20210;-77
2021/01/19 00:32:35;;;;;;;2.47;1.20;;;-5.80;75.90;;;;;;4969727;28;20741;-76
2021/01/19 00:35:01;;;;;;;1.70;1.60;;;-5.80;75.90;;;;;;4969726;28;20285;-79
2021/01/19 00:37:27;;;;;;;1.43;1.33;;;-5.80;75.90;;;;;;4969848;28;20643;-77
2021/01/19 00:39:52;;;;;;;1.70;1.60;;;-5.80;76.10;;;;;;4968389;28;20180;-77
2021/01/19 00:42:18;;;;;;;1.37;1.27;;;-5.80;76.10;;;;;;4980586;28;20276;-77
2021/01/19 00:44:44;;;;;;;2.87;2.07;;;-5.80;76.20;;;;;;4977372;28;20661;-77
2021/01/19 00:47:10;;;;;;;1.20;0.90;;;-5.80;76.10;;;;;;4972335;28;20616;-77
2021/01/19 00:49:35;;;;;;;1.00;0.97;;;-5.90;76.10;;;;;;4950054;28;20197;-77
2021/01/19 00:52:02;;;;;;;0.93;0.73;;;-5.90;76.20;;;;;;4957387;28;20227;-77
2021/01/19 00:54:27;;;;;;;0.80;0.80;;;-5.90;76.20;;;;;;4971856;28;20946;-77
2021/01/19 00:56:53;;;;;;;1.50;1.20;;;-5.90;76.30;;;;;;4962150;28;20184;-77
2021/01/19 00:59:18;;;;;;;1.37;1.37;;;-5.90;76.30;;;;;;4991055;28;20985;-77
2021/01/19 01:01:46;;;;;;;0.67;0.67;;;-5.90;76.40;;;;;;4974826;28;20241;-77
2021/01/19 01:04:12;;;;;;;1.30;1.13;;;-6.00;76.30;;;;;;4983769;28;20256;-77
2021/01/19 01:06:38;;;;;;;2.60;1.50;;;-6.00;76.40;;;;;;4973555;28;20194;-77
2021/01/19 01:09:04;;;;;;;2.17;0.60;;;-6.00;76.40;;;;;;4973135;28;20198;-77
2021/01/19 01:11:37;;;;;;;1.00;0.90;;;-6.00;76.40;;;;;;4972741;28;20636;-77
2021/01/19 01:14:03;;;;;;;1.00;0.50;;;-6.00;76.40;;;;;;4965817;28;20243;-77
2021/01/19 01:16:29;;;;;;;1.13;1.07;;;-6.00;76.40;;;;;;4972919;28;20221;-77
2021/01/19 01:18:55;;;;;;;0.97;0.97;;;-6.00;76.40;;;;;;4976571;28;20705;-77
2021/01/19 01:21:20;;;;;;;0.83;0.83;;;-6.00;76.30;;;;;;4972784;28;20959;-78
2021/01/19 01:23:46;;;;;;;0.93;0.93;;;-5.90;76.30;;;;;;4973648;28;20192;-77
2021/01/19 01:26:11;;;;;;;0.60;0.60;;;-5.90;76.10;;;;;;4973451;28;20193;-77
2021/01/19 01:28:37;;;;;;;1.50;1.00;;;-5.90;76.10;;;;;;4972283;28;20217;-77
2021/01/19 01:31:03;;;;;;;0.90;0.90;;;-5.90;76.10;;;;;;4980741;28;20188;-77
2021/01/19 01:33:28;;;;;;;0.57;0.57;;;-5.90;76.10;;;;;;4972232;28;20283;-77
2021/01/19 01:35:54;;;;;;;0.83;0.70;;;-5.90;76.10;;;;;;4972384;28;20228;-77
2021/01/19 01:38:20;;;;;;;0.43;0.43;;;-5.90;76.10;;;;;;4970996;28;20185;-77
2021/01/19 01:40:45;;;;;;;1.53;0.80;;;-5.90;76.10;;;;;;4972266;28;20185;-78
2021/01/19 01:43:13;;;;;;;1.20;1.20;;;-5.90;76.10;;;;;;4972668;28;20186;-77
2021/01/19 01:45:39;;;;;;;1.23;1.13;;;-5.80;76.00;;;;;;4978817;28;20186;-77
2021/01/19 01:48:10;;;;;;;1.13;1.03;;;-5.90;75.90;;;;;;4954517;28;20219;-78
2021/01/19 01:50:38;;;;;;;0.80;0.80;;;-5.80;75.90;;;;;;4971615;28;20191;-77
2021/01/19 01:53:05;;;;;;;0.70;0.67;;;-5.80;75.80;;;;;;4954550;28;20752;-78
2021/01/19 01:55:31;;;;;;;2.47;1.27;;;-5.80;75.90;;;;;;4971701;28;20618;-77
2021/01/19 01:57:57;;;;;;;1.80;1.70;;;-5.80;75.90;;;;;;4970917;28;20285;-77
2021/01/19 02:00:22;;;;;;;0.97;0.97;;;-5.80;75.90;;;;;;4969694;28;20679;-77
2021/01/19 02:02:53;;;;;;;1.37;1.17;;;-5.80;75.80;;;;;;4961290;28;20195;-77
2021/01/19 02:05:20;;;;;;;1.23;1.00;;;-5.80;75.70;;;;;;4962600;28;20193;-77
2021/01/19 02:08:02;;;;;;;1.43;0.97;;;-5.70;75.70;;;;;;4977441;28;20192;-77
2021/01/19 02:10:54;;;;;;;2.10;1.17;;;-5.70;75.70;;;;;;4967608;28;20212;-77
2021/01/19 02:13:34;;;;;;;1.20;1.20;;;-5.70;75.60;;;;;;4967448;28;20232;-77
2021/01/19 02:16:18;;;;;;;1.50;1.40;;;-5.60;75.40;;;;;;4974063;28;20181;-77
2021/01/19 02:18:53;;;;;;;0.83;0.83;;;-5.60;75.50;;;;;;4952907;28;20190;-77
2021/01/19 02:21:36;;;;;;;1.40;1.30;;;-5.50;75.40;;;;;;4972652;28;20206;-77
2021/01/19 02:24:33;;;;;;;3.53;1.53;;;-5.60;75.30;;;;;;4977945;28;20193;-77
2021/01/19 02:26:59;;;;;;;0.53;0.53;;;-5.50;75.30;;;;;;4952481;28;20745;-77
2021/01/19 02:29:44;;;;;;;3.77;1.00;;;-5.50;75.20;;;;;;4968651;28;20233;-78
2021/01/19 02:32:28;;;;;;;0.90;0.90;;;-5.50;75.20;;;;;;4971012;28;20237;-77
2021/01/19 02:35:12;;;;;;;1.60;1.50;;;-5.50;75.20;;;;;;4976960;28;20221;-77
2021/01/19 02:38:07;;;;;;;1.50;1.03;;;-5.50;75.00;;;;;;4989936;28;20264;-77
2021/01/19 02:40:33;;;;;;;0.93;0.93;;;-5.40;75.00;;;;;;4936808;29;20191;-77
2021/01/19 02:43:07;;;;;;;1.03;0.97;;;-5.40;75.00;;;;;;4930364;29;20211;-77
2021/01/19 02:45:33;;;;;;;1.43;1.10;;;-5.40;75.00;;;;;;4932724;29;20187;-77
2021/01/19 02:47:58;;;;;;;1.30;1.03;;;-5.40;75.00;;;;;;4931916;29;20183;-78
2021/01/19 02:50:26;;;;;;;1.13;1.03;;;-5.40;75.00;;;;;;4929793;29;20227;-79
2021/01/19 02:52:52;;;;;;;1.17;0.70;;;-5.40;75.00;;;;;;4913657;29;20207;-77
2021/01/19 02:55:18;;;;;;;1.00;1.00;;;-5.40;75.00;;;;;;4913999;29;20187;-77
2021/01/19 02:58:17;;;;;;;0.67;0.67;;;-5.40;75.10;;;;;;4930268;29;20216;-77
2021/01/19 03:01:03;;;;;;;0.20;0.20;;;-5.40;75.10;;;;;;4910478;29;20705;-77
2021/01/19 03:03:35;;;;;;;1.30;0.93;;;-5.40;75.30;;;;;;4918044;29;20209;-77
2021/01/19 03:06:14;;;;;;;1.73;0.87;;;-5.40;75.30;;;;;;4895586;29;20616;-77
2021/01/19 03:08:42;;;;;;;2.03;1.40;;;-5.40;75.40;;;;;;4910331;29;20311;-78
2021/01/19 03:11:10;;;;;;;0.90;0.90;;;-5.50;75.60;;;;;;4910745;29;20201;-78
2021/01/19 03:13:36;;;;;;;0.30;0.30;;;-5.40;75.60;;;;;;4894708;29;20821;-77
2021/01/19 03:16:16;;;;;;;0.83;0.83;;;-5.40;75.40;;;;;;4911113;29;20275;-77
2021/01/19 03:18:43;;;;;;;0.83;0.83;;;-5.40;75.40;;;;;;4911226;29;20267;-76
2021/01/19 03:21:09;;;;;;;1.70;0.73;;;-5.40;75.40;;;;;;4903381;29;20183;-77
2021/01/19 03:23:36;;;;;;;1.67;1.53;;;-5.40;75.50;;;;;;4910546;29;20220;-77
2021/01/19 03:26:03;;;;;;;1.87;1.23;;;-5.40;75.60;;;;;;4909879;29;20213;-77
2021/01/19 03:28:29;;;;;;;1.07;1.00;;;-5.40;75.60;;;;;;4910850;29;20196;-78
2021/01/19 03:30:55;;;;;;;1.23;1.13;;;-5.40;75.80;;;;;;4910550;29;20203;-77
2021/01/19 03:33:21;;;;;;;1.47;0.73;;;-5.40;75.80;;;;;;4910308;29;20208;-77
2021/01/19 03:35:47;;;;;;;7.40;0.97;;;-5.40;75.80;;;;;;4910377;29;20252;-80
2021/01/19 03:38:13;;;;;;;1.07;0.47;;;-5.40;75.80;;;;;;4942229;29;20716;-76
2021/01/19 03:40:39;;;;;;;1.40;1.33;;;-5.30;76.20;;;;;;4951005;29;20262;-76
2021/01/19 03:43:06;;;;;;;0.87;0.87;;;-5.40;75.90;;;;;;4949572;29;20250;-76
2021/01/19 03:45:32;;;;;;;0.40;0.40;;;-5.40;75.90;;;;;;4958133;28;20178;-77
2021/01/19 03:47:58;;;;;;;1.03;0.57;;;-5.40;76.00;;;;;;4952880;28;20178;-76
2021/01/19 03:50:24;;;;;;;0.43;0.43;;;-5.40;76.00;;;;;;4969947;28;20190;-77
2021/01/19 03:52:50;;;;;;;0.80;0.70;;;-5.40;76.10;;;;;;4968839;28;20189;-77
2021/01/19 03:55:16;;;;;;;0.57;0.57;;;-5.40;76.20;;;;;;4970189;28;20254;-77
2021/01/19 03:57:42;;;;;;;0.53;0.53;;;-5.40;76.30;;;;;;4952431;28;20255;-77
2021/01/19 04:00:10;;;;;;;1.70;1.43;;;-5.40;76.30;;;;;;4969399;28;20178;-78
2021/01/19 04:02:36;;;;;;;1.70;1.00;;;-5.40;76.30;;;;;;4952033;28;20293;-79
2021/01/19 04:05:02;;;;;;;1.30;1.27;;;-5.40;76.30;;;;;;4952664;28;20270;-76
2021/01/19 04:07:28;;;;;;;0.87;0.80;;;-5.40;76.20;;;;;;4951760;28;20346;-78
2021/01/19 04:09:54;;;;;;;0.60;0.43;;;-5.50;76.30;;;;;;4967607;28;20632;-79
2021/01/19 04:12:19;;;;;;;0.40;0.40;;;-5.50;76.40;;;;;;4965199;28;20732;-78
2021/01/19 04:14:45;;;;;;;1.67;1.57;;;-5.50;76.40;;;;;;4967334;28;20198;-76
2021/01/19 04:17:11;;;;;;;0.80;0.30;;;-5.50;76.40;;;;;;4952095;28;20267;-77
2021/01/19 04:19:37;;;;;;;0.50;0.50;;;-5.50;76.50;;;;;;4954127;28;20191;-78
2021/01/19 04:22:02;;;;;;;1.33;0.50;;;-5.50;76.50;;;;;;4974278;28;20496;-78
2021/01/19 04:24:28;;;;;;;0.80;0.47;;;-5.50;76.50;;;;;;4956694;28;20206;-76
2021/01/19 04:26:54;;;;;;;1.03;0.70;;;-5.50;76.50;;;;;;4973773;28;20209;-77
2021/01/19 04:29:19;;;;;;;0.60;0.60;;;-5.50;76.50;;;;;;4973441;28;20714;-77
2021/01/19 04:31:45;;;;;;;0.57;0.40;;;-5.40;76.50;;;;;;4973260;28;20652;-77
2021/01/19 04:34:11;;;;;;;1.07;0.33;;;-5.40;76.50;;;;;;4969513;28;20688;-77
2021/01/19 04:36:37;;;;;;;0.67;0.67;;;-5.40;76.50;;;;;;4972968;28;20187;-78
2021/01/19 04:39:03;;;;;;;0.70;0.70;;;-5.40;76.40;;;;;;4956252;28;20604;-77
2021/01/19 04:41:29;;;;;;;0.30;0.30;;;-5.30;76.40;;;;;;4973845;28;20171;-78
2021/01/19 04:43:55;;;;;;;0.47;0.47;;;-5.40;76.40;;;;;;4973608;28;20189;-77
2021/01/19 04:46:22;;;;;;;0.73;0.73;;;-5.30;76.40;;;;;;4973288;28;20186;-78
2021/01/19 04:48:49;;;;;;;0.80;0.80;;;-5.30;76.50;;;;;;4973644;28;20196;-78
2021/01/19 04:51:21;;;;;;;1.20;1.10;;;-5.30;76.40;;;;;;4971838;28;20279;-80
2021/01/19 04:54:08;;;;;;;0.63;0.63;;;-5.30;76.50;;;;;;4972560;28;20198;-77
2021/01/19 04:56:38;;;;;;;0.40;0.40;;;-5.30;76.50;;;;;;4952240;29;20182;-77
2021/01/19 04:59:12;;;;;;;0.37;0.37;;;-5.30;76.50;;;;;;4971406;28;20231;-77
2021/01/19 05:01:53;;;;;;;1.77;1.10;;;-5.30;76.50;;;;;;4971618;28;20206;-78
2021/01/19 05:04:47;;;;;;;5.30;0.87;;;-5.30;76.50;;;;;;4972214;28;20182;-77
2021/01/19 05:07:34;;;;;;;0.57;0.57;;;-5.30;76.50;;;;;;4973280;28;20185;-78
2021/01/19 05:10:12;;;;;;;1.00;1.00;;;-5.30;76.50;;;;;;4955617;28;20182;-78
2021/01/19 05:12:42;;;;;;;1.10;1.10;;;-5.30;76.60;;;;;;4955571;28;20249;-78
2021/01/19 05:15:13;;;;;;;0.43;0.43;;;-5.30;76.60;;;;;;4969681;28;20698;-77
2021/01/19 05:17:41;;;;;;;0.97;0.97;;;-5.30;76.50;;;;;;4955543;28;20188;-78
2021/01/19 05:20:08;;;;;;;1.03;0.70;;;-5.30;76.50;;;;;;4972472;28;20181;-78
2021/01/19 05:22:34;;;;;;;3.97;1.33;;;-5.30;76.60;;;;;;4964926;28;20183;-78
2021/01/19 05:25:00;;;;;;;1.27;1.27;;;-5.30;76.60;;;;;;4958781;28;20181;-78
2021/01/19 05:27:27;;;;;;;1.23;0.60;;;-5.30;76.60;;;;;;4972462;28;20186;-78
2021/01/19 05:30:07;;;;;;;1.13;1.13;;;-5.30;76.60;;;;;;4966610;28;20281;-78
2021/01/19 05:32:41;;;;;;;1.33;0.97;;;-5.30;76.60;;;;;;4949126;28;20179;-77
2021/01/19 05:35:12;;;;;;;0.40;0.40;;;-5.30;76.80;;;;;;4961951;28;20235;-79
2021/01/19 05:37:38;;;;;;;1.03;1.03;;;-5.30;76.90;;;;;;4953735;28;20238;-76
2021/01/19 05:40:07;;;;;;;2.60;0.77;;;-5.30;77.00;;;;;;4970696;28;20190;-76
2021/01/19 05:42:33;;;;;;;1.57;1.13;;;-5.30;77.10;;;;;;4970092;28;20193;-75
2021/01/19 05:45:06;;;;;;;2.13;0.90;;;-5.30;77.30;;;;;;4968924;28;20194;-75
2021/01/19 05:47:33;;;;;;;0.70;0.63;;;-5.30;77.30;;;;;;4970355;28;20290;-75
2021/01/19 05:50:00;;;;;;;1.03;1.03;;;-5.20;77.40;;;;;;4969232;28;20191;-76
2021/01/19 05:52:33;;;;;;;1.43;1.33;;;-5.20;77.30;;;;;;4970609;28;20190;-77
2021/01/19 05:55:00;;;;;;;1.13;1.10;;;-5.10;77.40;;;;;;4970614;28;20204;-76
2021/01/19 05:57:27;;;;;;;0.90;0.67;;;-5.10;77.30;;;;;;4969944;28;20236;-76
2021/01/19 05:59:55;;;;;;;2.20;1.17;;;-5.00;77.20;;;;;;4970226;28;20172;-76
2021/01/19 06:02:22;;;;;;;0.60;0.60;;;-5.00;77.10;;;;;;4967454;28;20192;-76
2021/01/19 06:04:54;;;;;;;1.57;1.03;;;-5.00;77.00;;;;;;4958694;28;20187;-76
2021/01/19 06:07:20;;;;;;;0.77;0.53;;;-4.90;76.90;;;;;;4969233;28;20195;-75
2021/01/19 06:09:47;;;;;;;1.30;1.20;;;-4.90;77.10;;;;;;4951073;28;20223;-75
2021/01/19 06:12:13;;;;;;;0.60;0.60;;;-4.80;77.10;;;;;;4951494;28;20742;-75
2021/01/19 06:14:45;;;;;;;0.40;0.33;;;-4.90;77.40;;;;;;4974880;28;20206;-74
2021/01/19 06:17:13;;;;;;;0.93;0.93;;;-4.90;77.70;;;;;;4967215;28;20174;-75
2021/01/19 06:19:41;;;;;;;0.77;0.77;;;-4.80;77.90;;;;;;4968923;28;20648;-73
2021/01/19 06:22:09;;;;;;;2.37;1.27;;;-4.80;78.10;;;;;;4949868;28;20246;-74
2021/01/19 06:24:37;;;;;;;0.70;0.70;;;-4.70;78.10;;;;;;4968187;28;20185;-74
2021/01/19 06:27:04;;;;;;;0.50;0.50;;;-4.60;77.90;;;;;;4968780;28;20227;-73
2021/01/19 06:29:31;;;;;;;1.00;1.00;;;-4.50;77.80;;;;;;4969152;28;20205;-74
2021/01/19 06:31:58;;;;;;;2.00;1.00;;;-4.40;77.80;;;;;;4951376;28;20267;-74
2021/01/19 06:34:33;;;;;;;0.67;0.67;;;-4.40;77.80;;;;;;4959693;28;20235;-73
2021/01/19 06:37:00;;;;;;;3.50;1.00;;;-4.30;77.70;;;;;;4950188;28;20177;-73
2021/01/19 06:39:35;;;;;;;0.80;0.80;;;-4.20;77.70;;;;;;4967158;28;20572;-73
2021/01/19 06:42:11;;;;;;;1.20;1.20;;;-4.20;77.60;;;;;;4966249;28;20180;-73
2021/01/19 06:44:42;;;;;;;0.90;0.90;;;-4.10;77.40;;;;;;4967827;28;20259;-73
2021/01/19 06:47:08;;;;;;;0.90;0.90;;;-4.00;77.40;;;;;;4966579;28;20332;-73
2021/01/19 06:49:37;;;;;;;1.43;1.27;;;-3.90;77.30;;;;;;4966961;28;20180;-72
2021/01/19 06:52:06;;;;;;;1.40;0.93;;;-3.70;77.20;;;;;;4949318;28;20200;-74
2021/01/19 06:54:40;;;;;;;4.47;1.47;;;-3.60;76.90;;;;;;4950087;28;20202;-75
2021/01/19 06:57:29;;;;;;;11.33;1.40;;;-3.50;76.70;;;;;;4968844;28;21034;-78
2021/01/19 07:00:04;;;;;;;0.63;0.63;;;-3.50;76.50;;;;;;4967428;28;20275;-78
2021/01/19 07:02:36;;;;;;;2.60;1.33;;;-3.40;76.20;;;;;;4969504;28;20172;-78
2021/01/19 07:05:29;;;;;;;1.47;0.73;;;-3.30;76.20;;;;;;4968980;28;20169;-77
2021/01/19 07:08:29;;;;;;;1.17;1.00;;;-3.30;76.00;;;;;;4949007;28;20217;-77
2021/01/19 07:11:19;;;;;;;1.03;1.03;;;-3.20;75.70;;;;;;4951031;28;20543;-77
2021/01/19 07:13:49;;;;;;;0.67;0.67;;;-3.10;75.90;;;;;;4968198;28;20322;-77
2021/01/19 07:16:23;;;;;;;1.23;1.10;;;-3.00;75.80;;;;;;4968206;28;20265;-77
2021/01/19 07:19:11;;;;;;;1.00;1.00;;;-2.80;75.90;;;;;;4965231;28;20210;-77
2021/01/19 07:22:09;;;;;;;1.70;1.60;;;-2.70;75.90;;;;;;4968334;28;20165;-77
2021/01/19 07:24:45;;;;;;;3.87;2.47;;;-2.50;75.20;;;;;;4968613;28;20200;-78
2021/01/19 07:27:12;;;;;;;1.47;1.23;;;-2.40;75.00;;;;;;4969758;28;20165;-78
2021/01/19 07:29:38;;;;;;;2.10;1.93;;;-2.30;74.80;;;;;;4950909;28;20196;-78
2021/01/19 07:32:09;;;;;;;4.40;2.70;;;-2.30;75.00;;;;;;4968736;28;20185;-78
2021/01/19 07:34:37;;;;;;;2.83;2.60;;;-2.20;75.10;;;;;;4968240;28;20663;-78
2021/01/19 07:37:03;;;;;;;3.00;2.73;;;-2.20;75.00;;;;;;4949996;28;20351;-78
2021/01/19 07:39:34;;;;;;;6.13;2.63;;;-2.10;75.20;;;;;;4968943;28;20175;-78
2021/01/19 07:42:15;;;;;;;7.30;5.07;;;-2.00;75.00;;;;;;4951058;28;20179;-78
2021/01/19 07:44:42;;;;;;;10.20;5.27;;;-1.90;74.40;;;;;;4950889;28;20178;-78
2021/01/19 07:47:17;;;;;;;21.80;8.33;;;-1.80;73.70;;;;;;4950749;28;20186;-78
2021/01/19 07:49:43;;;;;;;13.67;7.40;;;-1.80;73.60;;;;;;4965847;28;20174;-77
2021/01/19 07:52:11;;;;;;;9.17;7.23;;;-1.70;73.10;;;;;;4979652;28;20202;-79
2021/01/19 07:54:36;;;;;;;13.03;6.77;;;-1.60;72.80;;;;;;4952643;28;20209;-78
2021/01/19 07:57:10;;;;;;;6.33;5.77;;;-1.60;72.00;;;;;;4978740;28;20522;-79
2021/01/19 07:59:37;;;;;;;8.77;6.10;;;-1.60;72.30;;;;;;4960784;28;20252;-80
2021/01/19 08:02:22;;;;;;;11.20;6.63;;;-1.50;72.00;;;;;;4951819;28;20268;-76
2021/01/19 08:04:59;;;;;;;11.73;6.27;;;-1.50;71.80;;;;;;4971123;28;20270;-79
2021/01/19 08:07:24;;;;;;;8.17;5.07;;;-1.40;71.60;;;;;;4953443;28;20220;-80
2021/01/19 08:09:50;;;;;;;6.07;4.93;;;-1.40;71.50;;;;;;4960479;28;20189;-79
2021/01/19 08:12:16;;;;;;;12.40;7.07;;;-1.40;71.60;;;;;;4940367;29;20191;-79
2021/01/19 08:14:43;;;;;;;16.90;7.10;;;-1.40;71.20;;;;;;4958182;28;20209;-78
2021/01/19 08:17:11;;;;;;;10.40;6.57;;;-1.40;71.60;;;;;;4974236;28;20192;-78
2021/01/19 08:19:45;;;;;;;6.77;5.33;;;-1.30;71.50;;;;;;4966876;28;20185;-78
2021/01/19 08:22:12;;;;;;;8.03;5.03;;;-1.30;71.60;;;;;;4962366;28;20655;-78
2021/01/19 08:24:42;;;;;;;6.00;4.20;;;-1.30;71.70;;;;;;4967060;28;20179;-78
2021/01/19 08:27:09;;;;;;;7.87;4.90;;;-1.30;72.50;;;;;;4971075;28;20182;-79
2021/01/19 08:29:36;;;;;;;11.00;4.90;;;-1.30;72.50;;;;;;4965925;28;20203;-79
2021/01/19 08:32:03;;;;;;;4.27;3.53;;;-1.40;72.30;;;;;;4969511;28;21012;-78
2021/01/19 08:34:32;;;;;;;3.83;2.50;;;-1.40;73.00;;;;;;4950867;28;20279;-78
2021/01/19 08:37:00;;;;;;;5.83;3.43;;;-1.40;73.70;;;;;;4949890;28;20190;-79
2021/01/19 08:39:27;;;;;;;5.90;3.27;;;-1.40;74.00;;;;;;4950989;28;20554;-79
2021/01/19 08:41:54;;;;;;;3.60;3.20;;;-1.50;74.20;;;;;;4966718;28;20269;-78
2021/01/19 08:44:20;;;;;;;5.33;3.17;;;-1.40;74.50;;;;;;4970977;28;20193;-78
2021/01/19 08:46:48;;;;;;;2.90;2.70;;;-1.60;75.00;;;;;;4955777;28;20662;-79
2021/01/19 08:49:15;;;;;;;6.33;2.33;;;-1.60;75.30;;;;;;4969595;28;20259;-78
2021/01/19 08:51:48;;;;;;;2.07;1.93;;;-1.60;75.60;;;;;;4960031;28;20187;-78
2021/01/19 08:54:14;;;;;;;3.20;2.87;;;-1.70;76.00;;;;;;4979592;28;20202;-78
2021/01/19 08:56:41;;;;;;;2.53;2.33;;;-1.70;76.10;;;;;;4955982;28;21025;-78
2021/01/19 08:59:15;;;;;;;6.97;3.00;;;-1.60;76.40;;;;;;4968033;28;20727;-78
2021/01/19 09:01:54;;;;;;;2.83;2.60;;;-1.60;76.40;;;;;;4966562;28;20167;-78
2021/01/19 09:04:27;;;;;;;3.10;2.27;;;-1.50;76.40;;;;;;4958192;28;20986;-78
2021/01/19 09:07:03;;;;;;;2.63;2.53;;;-1.50;76.70;;;;;;4969399;28;20177;-78
2021/01/19 09:09:28;;;;;;;2.37;2.17;;;-1.40;76.70;;;;;;4959626;28;20566;-77
2021/01/19 09:11:54;;;;;;;6.17;2.87;;;-1.30;76.60;;;;;;4952490;29;20187;-76
2021/01/19 09:14:24;;;;;;;4.30;2.77;;;-1.10;76.40;;;;;;4935542;29;20605;-76
2021/01/19 09:16:51;;;;;;;7.50;3.80;;;-1.00;76.10;;;;;;4952271;29;20183;-77
2021/01/19 09:19:17;;;;;;;7.27;3.93;;;-0.80;75.80;;;;;;4953083;29;20171;-76
2021/01/19 09:21:43;;;;;;;4.47;3.07;;;-0.70;75.30;;;;;;4952499;29;20183;-78
2021/01/19 09:24:24;;;;;;;5.87;3.30;;;-0.50;75.30;;;;;;4952752;29;20186;-78
2021/01/19 09:27:00;;;;;;;4.40;2.77;;;-0.30;74.70;;;;;;4952121;28;20171;-77
2021/01/19 09:29:32;;;;;;;3.93;2.53;;;-0.30;74.40;;;;;;4937459;29;20281;-78
2021/01/19 09:32:02;;;;;;;5.53;3.73;;;-0.20;74.20;;;;;;4961253;28;21118;-77
2021/01/19 09:34:30;;;;;;;3.40;2.73;;;-0.10;74.10;;;;;;4943775;28;20240;-77
2021/01/19 09:36:56;;;;;;;5.93;3.63;;;-0.10;74.00;;;;;;4950572;28;20182;-77
2021/01/19 09:39:32;;;;;;;5.30;3.17;;;0.00;73.60;;;;;;4933616;29;20597;-77
2021/01/19 09:42:04;;;;;;;3.77;2.67;;;0.00;73.70;;;;;;4950388;29;20175;-78
2021/01/19 09:44:30;;;;;;;2.37;2.03;;;0.00;73.80;;;;;;4952327;29;20171;-77
2021/01/19 09:47:05;;;;;;;3.43;1.77;;;-0.10;73.90;;;;;;4952312;29;20206;-77
2021/01/19 09:49:32;;;;;;;1.50;1.47;;;-0.10;74.40;;;;;;4951988;29;20726;-77
2021/01/19 09:52:12;;;;;;;3.70;1.53;;;-0.10;74.40;;;;;;4949701;28;20210;-77
2021/01/19 09:54:38;;;;;;;2.00;1.90;;;-0.10;74.40;;;;;;4957808;28;20264;-77
2021/01/19 09:57:07;;;;;;;2.63;1.90;;;-0.10;74.30;;;;;;4960782;28;20216;-77
2021/01/19 09:59:33;;;;;;;1.87;1.77;;;0.00;74.40;;;;;;4982344;28;20281;-77
2021/01/19 10:01:59;;;;;;;3.63;2.57;;;0.10;74.40;;;;;;4957827;28;20213;-79
2021/01/19 10:04:29;;;;;;;2.47;2.27;;;0.30;74.20;;;;;;4971081;28;20210;-77
2021/01/19 10:07:06;;;;;;;2.60;2.33;;;0.30;73.60;;;;;;4952861;28;20671;-78
2021/01/19 10:09:33;;;;;;;3.47;1.67;;;0.30;73.60;;;;;;4954035;28;20186;-76
2021/01/19 10:12:07;;;;;;;2.27;1.97;;;0.30;73.80;;;;;;4953448;28;20203;-77
2021/01/19 10:14:41;;;;;;;3.77;1.27;;;0.40;74.00;;;;;;4953729;28;20202;-76
2021/01/19 10:17:08;;;;;;;1.30;1.17;;;0.50;73.90;;;;;;4970447;28;20161;-77
2021/01/19 10:19:36;;;;;;;1.60;1.50;;;0.60;74.00;;;;;;4953375;28;20575;-79
2021/01/19 10:22:10;;;;;;;2.47;2.27;;;0.60;73.70;;;;;;4970919;28;20202;-87
2021/01/19 10:24:36;;;;;;;1.83;1.73;;;0.80;73.50;;;;;;4971356;28;20175;-80
2021/01/19 10:27:10;;;;;;;2.77;2.13;;;0.90;73.50;;;;;;4976567;28;20590;-81
2021/01/19 10:29:44;;;;;;;2.00;1.90;;;1.10;73.10;;;;;;4990807;28;20197;-86
2021/01/19 10:32:16;;;;;;;2.90;1.80;;;1.20;72.40;;;;;;4973604;28;20278;-80
2021/01/19 10:34:50;;;;;;;3.93;2.50;;;1.00;72.20;;;;;;4989225;28;20227;-79
2021/01/19 10:37:18;;;;;;;3.50;2.53;;;0.90;72.80;;;;;;4972844;28;20181;-91
2021/01/19 10:39:55;;;;;;;2.67;2.33;;;1.10;72.80;;;;;;4955760;28;20209;-77
2021/01/19 10:42:25;;;;;;;2.37;1.60;;;1.20;72.40;;;;;;4989728;28;20219;-77
2021/01/19 10:45:02;;;;;;;2.30;1.57;;;1.30;72.40;;;;;;4989273;28;20244;-79
2021/01/19 10:47:41;;;;;;;6.23;1.90;;;1.30;72.20;;;;;;4988144;28;20644;-78
2021/01/19 10:50:18;;;;;;;1.20;1.20;;;1.40;72.40;;;;;;4975448;28;20171;-77
2021/01/19 10:52:55;;;;;;;2.03;1.87;;;1.60;72.00;;;;;;4951933;28;20197;-78
2021/01/19 10:55:21;;;;;;;2.70;1.63;;;1.90;71.40;;;;;;4951580;28;20213;-77
2021/01/19 10:57:47;;;;;;;1.97;1.40;;;2.20;71.30;;;;;;4952002;28;20259;-78
2021/01/19 11:00:13;;;;;;;0.93;0.93;;;2.70;69.50;;;;;;4952035;28;20269;-77
2021/01/19 11:02:39;;;;;;;3.43;2.70;;;3.20;69.10;;;;;;4952202;28;20268;-77
2021/01/19 11:05:05;;;;;;;1.97;1.80;;;3.90;68.40;;;;;;4952845;28;20218;-77
2021/01/19 11:07:31;;;;;;;3.10;2.20;;;4.70;65.70;;;;;;4952570;28;20186;-77
2021/01/19 11:09:57;;;;;;;2.43;2.23;;;4.90;64.30;;;;;;4953913;28;20787;-77
2021/01/19 11:12:22;;;;;;;9.80;2.73;;;4.50;64.30;;;;;;4949988;29;20237;-76
2021/01/19 11:14:48;;;;;;;2.37;2.10;;;4.50;64.90;;;;;;4949981;29;20206;-78
2021/01/19 11:17:13;;;;;;;2.10;1.73;;;4.40;65.00;;;;;;4949958;29;20179;-77
2021/01/19 11:19:39;;;;;;;2.47;2.27;;;4.30;64.90;;;;;;4951164;29;20311;-76
2021/01/19 11:22:08;;;;;;;3.33;3.03;;;4.00;65.10;;;;;;4949958;29;20562;-77
2021/01/19 11:24:35;;;;;;;2.40;2.20;;;3.90;65.50;;;;;;4950307;29;20175;-77
2021/01/19 11:27:00;;;;;;;2.27;2.03;;;3.90;65.60;;;;;;4952835;28;20187;-76
2021/01/19 11:29:26;;;;;;;3.10;2.30;;;3.70;65.70;;;;;;4967494;28;20646;-77
2021/01/19 11:31:52;;;;;;;2.43;1.97;;;3.60;65.90;;;;;;4966795;28;20298;-78
2021/01/19 11:34:18;;;;;;;2.30;2.13;;;3.50;66.20;;;;;;4968482;28;20208;-77
2021/01/19 11:36:44;;;;;;;2.27;1.97;;;3.40;66.60;;;;;;4968679;28;20181;-76
2021/01/19 11:39:10;;;;;;;2.77;2.43;;;3.40;66.60;;;;;;4969094;28;20170;-77
2021/01/19 11:41:38;;;;;;;2.33;2.13;;;3.40;66.50;;;;;;4966986;28;20243;-78
2021/01/19 11:44:06;;;;;;;1.70;1.53;;;3.30;66.90;;;;;;4966549;28;20190;-76
2021/01/19 11:46:35;;;;;;;4.53;2.17;;;3.30;67.20;;;;;;4951168;28;20659;-76
2021/01/19 11:49:03;;;;;;;2.67;2.47;;;3.60;66.80;;;;;;4967793;28;20175;-77
2021/01/19 11:51:32;;;;;;;2.40;2.27;;;3.90;66.70;;;;;;4966805;28;20186;-78
2021/01/19 11:54:00;;;;;;;3.63;1.80;;;4.60;65.80;;;;;;4968224;28;20205;-76
2021/01/19 11:56:48;;;;;;;3.20;1.93;;;5.20;64.50;;;;;;4967210;28;20572;-76
2021/01/19 11:59:15;;;;;;;2.20;1.93;;;5.60;62.90;;;;;;4947511;29;20195;-75
2021/01/19 12:01:41;;;;;;;2.17;1.97;;;5.70;62.70;;;;;;4945734;29;20179;-75
2021/01/19 12:04:08;;;;;;;2.43;2.20;;;5.80;62.60;;;;;;4947423;29;20606;-75
2021/01/19 12:06:41;;;;;;;2.27;2.17;;;6.10;62.00;;;;;;4947464;29;20194;-75
2021/01/19 12:09:09;;;;;;;1.90;1.90;;;6.40;61.80;;;;;;4956215;28;20209;-74
2021/01/19 12:11:46;;;;;;;5.33;2.67;;;6.60;61.10;;;;;;4966796;28;20263;-74
2021/01/19 12:14:12;;;;;;;3.17;2.97;;;6.60;60.70;;;;;;4967428;28;20269;-76
2021/01/19 12:16:39;;;;;;;1.90;1.80;;;6.80;61.60;;;;;;4968105;28;20174;-76
2021/01/19 12:19:12;;;;;;;3.80;2.87;;;7.10;60.90;;;;;;4951030;28;20579;-76
2021/01/19 12:21:46;;;;;;;2.30;2.20;;;7.40;60.50;;;;;;4966681;28;20551;-74
2021/01/19 12:24:11;;;;;;;2.60;2.40;;;7.70;60.10;;;;;;4967833;28;20889;-80
2021/01/19 12:26:37;;;;;;;2.60;2.43;;;7.70;59.60;;;;;;4949927;28;20186;-78
2021/01/19 12:29:03;;;;;;;2.07;1.97;;;7.80;59.60;;;;;;4950995;28;20582;-79
2021/01/19 12:31:28;;;;;;;2.40;2.30;;;7.30;59.10;;;;;;4969324;28;20190;-79
2021/01/19 12:33:54;;;;;;;2.20;2.00;;;7.00;59.50;;;;;;4968242;28;20198;-80
2021/01/19 12:36:20;;;;;;;2.83;2.47;;;6.80;60.00;;;;;;4945303;28;20206;-79
2021/01/19 12:38:46;;;;;;;2.13;1.97;;;6.70;60.30;;;;;;4968470;28;20676;-79
2021/01/19 12:41:14;;;;;;;1.83;1.67;;;6.70;60.20;;;;;;4971111;28;20191;-79
2021/01/19 12:43:40;;;;;;;2.10;2.00;;;6.50;60.40;;;;;;4940087;28;20246;-78
2021/01/19 12:46:05;;;;;;;2.43;2.17;;;6.40;60.80;;;;;;4951889;29;20183;-79
2021/01/19 12:48:31;;;;;;;3.00;1.50;;;6.40;60.90;;;;;;4960375;28;20197;-80
2021/01/19 12:50:57;;;;;;;2.60;1.70;;;6.50;60.80;;;;;;4954169;28;20672;-78
2021/01/19 12:53:22;;;;;;;4.57;2.60;;;6.30;60.50;;;;;;4971164;28;20190;-78
2021/01/19 12:55:48;;;;;;;2.57;2.37;;;6.10;61.10;;;;;;4958651;28;20225;-77
2021/01/19 12:58:16;;;;;;;2.43;2.23;;;5.70;61.30;;;;;;4973446;28;20197;-79
2021/01/19 13:00:42;;;;;;;2.60;2.17;;;5.30;62.20;;;;;;4972246;28;20175;-79